sensor_id;sensor_type;location;lat;lon;timestamp;temperature;humidity
59208;DHT22;44977;53.132;6.408;2024-02-04T00:04:35;7.30;99.90
59208;DHT22;44977;53.132;6.408;2024-02-04T00:09:36;7.20;99.90
59208;DHT22;44977;53.132;6.408;2024-02-04T00:14:37;7.20;99.90
59208;DHT22;44977;53.132;6.408;2024-02-04T00:19:37;7.10;99.90
59208;DHT22;44977;53.132;6.408;2024-02-04T00:24:38;7.10;99.90
59208;DHT22;44977;53.132;6.408;2024-02-04T00:29:38;7.00;99.90
59208;DHT22;44977;53.132;6.408;2024-02-04T00:34:39;7.00;99.90
59208;DHT22;44977;53.132;6.408;2024-02-04T00:39:40;6.90;99.90
59208;DHT22;44977;53.132;6.408;2024-02-04T00:44:40;6.90;99.90
59208;DHT22;44977;53.132;6.408;2024-02-04T00:49:41;6.90;99.90
59208;DHT22;44977;53.132;6.408;2024-02-04T00:54:42;6.90;99.90
59208;DHT22;44977;53.132;6.408;2024-02-04T00:59:42;6.80;99.90
59208;DHT22;44977;53.132;6.408;2024-02-04T01:04:43;6.80;99.90
59208;DHT22;44977;53.132;6.408;2024-02-04T01:09:44;6.70;99.90
59208;DHT22;44977;53.132;6.408;2024-02-04T01:14:44;6.70;99.90
59208;DHT22;44977;53.132;6.408;2024-02-04T01:19:45;6.70;99.90
59208;DHT22;44977;53.132;6.408;2024-02-04T01:24:45;6.60;99.90
59208;DHT22;44977;53.132;6.408;2024-02-04T01:29:48;6.60;99.90
59208;DHT22;44977;53.132;6.408;2024-02-04T01:34:49;6.60;99.90
59208;DHT22;44977;53.132;6.408;2024-02-04T01:39:50;6.50;99.90
59208;DHT22;44977;53.132;6.408;2024-02-04T01:44:50;6.50;99.90
59208;DHT22;44977;53.132;6.408;2024-02-04T01:49:51;6.40;99.90
59208;DHT22;44977;53.132;6.408;2024-02-04T01:54:52;6.40;99.90
59208;DHT22;44977;53.132;6.408;2024-02-04T01:59:53;6.40;99.90
59208;DHT22;44977;53.132;6.408;2024-02-04T02:04:57;6.40;99.90
59208;DHT22;44977;53.132;6.408;2024-02-04T02:09:57;6.40;99.90
59208;DHT22;44977;53.132;6.408;2024-02-04T02:15:04;6.30;99.90
59208;DHT22;44977;53.132;6.408;2024-02-04T02:20:24;6.30;99.90
59208;DHT22;44977;53.132;6.408;2024-02-04T02:25:28;6.30;99.90
59208;DHT22;44977;53.132;6.408;2024-02-04T02:30:29;6.20;99.90
59208;DHT22;44977;53.132;6.408;2024-02-04T02:35:29;6.20;99.90
59208;DHT22;44977;53.132;6.408;2024-02-04T02:41:02;6.20;99.90
59208;DHT22;44977;53.132;6.408;2024-02-04T02:46:04;6.20;99.90
59208;DHT22;44977;53.132;6.408;2024-02-04T02:51:05;6.20;99.90
59208;DHT22;44977;53.132;6.408;2024-02-04T02:56:06;6.20;99.90
59208;DHT22;44977;53.132;6.408;2024-02-04T03:01:07;6.20;99.90
59208;DHT22;44977;53.132;6.408;2024-02-04T03:06:08;6.20;99.90
59208;DHT22;44977;53.132;6.408;2024-02-04T03:11:08;6.20;99.90
59208;DHT22;44977;53.132;6.408;2024-02-04T03:16:11;6.20;99.90
59208;DHT22;44977;53.132;6.408;2024-02-04T03:21:15;6.20;99.90
59208;DHT22;44977;53.132;6.408;2024-02-04T03:26:17;6.20;99.90
59208;DHT22;44977;53.132;6.408;2024-02-04T03:31:21;6.20;99.90
59208;DHT22;44977;53.132;6.408;2024-02-04T03:36:23;6.20;99.90
59208;DHT22;44977;53.132;6.408;2024-02-04T03:41:24;6.20;99.90
59208;DHT22;44977;53.132;6.408;2024-02-04T03:46:25;6.20;99.90
59208;DHT22;44977;53.132;6.408;2024-02-04T03:51:26;6.30;99.90
59208;DHT22;44977;53.132;6.408;2024-02-04T03:56:27;6.30;99.90
59208;DHT22;44977;53.132;6.408;2024-02-04T04:01:27;6.30;99.90
59208;DHT22;44977;53.132;6.408;2024-02-04T04:06:28;6.30;99.90
59208;DHT22;44977;53.132;6.408;2024-02-04T04:11:28;6.30;99.90
59208;DHT22;44977;53.132;6.408;2024-02-04T04:16:29;6.30;99.90
59208;DHT22;44977;53.132;6.408;2024-02-04T04:21:30;6.30;99.90
59208;DHT22;44977;53.132;6.408;2024-02-04T04:26:31;6.30;99.90
59208;DHT22;44977;53.132;6.408;2024-02-04T04:31:32;6.30;99.90
59208;DHT22;44977;53.132;6.408;2024-02-04T04:36:32;6.40;99.90
59208;DHT22;44977;53.132;6.408;2024-02-04T04:41:33;6.50;99.90
59208;DHT22;44977;53.132;6.408;2024-02-04T04:46:37;6.50;99.90
59208;DHT22;44977;53.132;6.408;2024-02-04T04:51:37;6.50;99.90
59208;DHT22;44977;53.132;6.408;2024-02-04T04:56:41;6.50;99.90
59208;DHT22;44977;53.132;6.408;2024-02-04T05:01:47;6.50;99.90
59208;DHT22;44977;53.132;6.408;2024-02-04T05:06:47;6.50;99.90
59208;DHT22;44977;53.132;6.408;2024-02-04T05:11:48;6.50;99.90
59208;DHT22;44977;53.132;6.408;2024-02-04T05:16:49;6.50;99.90
59208;DHT22;44977;53.132;6.408;2024-02-04T05:21:49;6.50;99.90
59208;DHT22;44977;53.132;6.408;2024-02-04T05:26:50;6.50;99.90
59208;DHT22;44977;53.132;6.408;2024-02-04T05:31:51;6.60;99.90
59208;DHT22;44977;53.132;6.408;2024-02-04T05:36:51;6.60;99.90
59208;DHT22;44977;53.132;6.408;2024-02-04T05:41:52;6.60;99.90
59208;DHT22;44977;53.132;6.408;2024-02-04T05:46:53;6.60;99.90
59208;DHT22;44977;53.132;6.408;2024-02-04T05:51:53;6.60;99.90
59208;DHT22;44977;53.132;6.408;2024-02-04T05:56:54;6.60;99.90
59208;DHT22;44977;53.132;6.408;2024-02-04T06:01:54;6.50;99.90
59208;DHT22;44977;53.132;6.408;2024-02-04T06:06:55;6.60;99.90
59208;DHT22;44977;53.132;6.408;2024-02-04T06:11:56;6.70;99.90
59208;DHT22;44977;53.132;6.408;2024-02-04T06:16:56;6.70;99.90
59208;DHT22;44977;53.132;6.408;2024-02-04T06:21:57;6.70;99.90
59208;DHT22;44977;53.132;6.408;2024-02-04T06:26:58;6.70;99.90
59208;DHT22;44977;53.132;6.408;2024-02-04T06:31:58;6.70;99.90
59208;DHT22;44977;53.132;6.408;2024-02-04T06:36:59;6.70;99.90
59208;DHT22;44977;53.132;6.408;2024-02-04T06:42:00;6.80;99.90
59208;DHT22;44977;53.132;6.408;2024-02-04T06:47:01;6.80;99.90
59208;DHT22;44977;53.132;6.408;2024-02-04T06:52:01;6.80;99.90
59208;DHT22;44977;53.132;6.408;2024-02-04T06:57:02;6.80;99.90
59208;DHT22;44977;53.132;6.408;2024-02-04T07:02:03;6.90;99.90
59208;DHT22;44977;53.132;6.408;2024-02-04T07:07:04;6.90;99.90
59208;DHT22;44977;53.132;6.408;2024-02-04T07:12:05;6.90;99.90
59208;DHT22;44977;53.132;6.408;2024-02-04T07:17:06;6.90;99.90
59208;DHT22;44977;53.132;6.408;2024-02-04T07:22:06;7.00;99.90
59208;DHT22;44977;53.132;6.408;2024-02-04T07:27:07;7.00;99.90
59208;DHT22;44977;53.132;6.408;2024-02-04T07:32:08;7.00;99.90
59208;DHT22;44977;53.132;6.408;2024-02-04T07:37:09;7.00;99.90
59208;DHT22;44977;53.132;6.408;2024-02-04T07:42:10;7.00;99.90
59208;DHT22;44977;53.132;6.408;2024-02-04T07:47:10;7.10;99.90
59208;DHT22;44977;53.132;6.408;2024-02-04T07:52:11;7.20;99.90
59208;DHT22;44977;53.132;6.408;2024-02-04T07:57:12;7.20;99.90
59208;DHT22;44977;53.132;6.408;2024-02-04T08:02:13;7.20;99.90
59208;DHT22;44977;53.132;6.408;2024-02-04T08:07:14;7.20;99.90
59208;DHT22;44977;53.132;6.408;2024-02-04T08:12:15;7.30;99.90
59208;DHT22;44977;53.132;6.408;2024-02-04T08:17:15;7.30;99.90
59208;DHT22;44977;53.132;6.408;2024-02-04T08:22:16;7.40;99.90
59208;DHT22;44977;53.132;6.408;2024-02-04T08:27:18;7.40;99.90
59208;DHT22;44977;53.132;6.408;2024-02-04T08:32:19;7.40;99.90
59208;DHT22;44977;53.132;6.408;2024-02-04T08:37:19;7.40;99.90
59208;DHT22;44977;53.132;6.408;2024-02-04T08:42:20;7.50;99.90
59208;DHT22;44977;53.132;6.408;2024-02-04T08:47:21;7.60;99.90
59208;DHT22;44977;53.132;6.408;2024-02-04T08:52:21;7.60;99.90
59208;DHT22;44977;53.132;6.408;2024-02-04T08:57:23;7.70;99.90
59208;DHT22;44977;53.132;6.408;2024-02-04T09:02:24;7.80;99.90
59208;DHT22;44977;53.132;6.408;2024-02-04T09:07:25;7.80;99.90
59208;DHT22;44977;53.132;6.408;2024-02-04T09:12:25;7.90;99.90
59208;DHT22;44977;53.132;6.408;2024-02-04T09:17:27;7.90;99.90
59208;DHT22;44977;53.132;6.408;2024-02-04T09:22:28;7.90;99.90
59208;DHT22;44977;53.132;6.408;2024-02-04T09:27:29;8.00;99.90
59208;DHT22;44977;53.132;6.408;2024-02-04T09:32:30;8.00;99.90
59208;DHT22;44977;53.132;6.408;2024-02-04T09:37:30;8.10;99.90
59208;DHT22;44977;53.132;6.408;2024-02-04T09:42:31;8.10;99.90
59208;DHT22;44977;53.132;6.408;2024-02-04T09:47:34;8.10;99.90
59208;DHT22;44977;53.132;6.408;2024-02-04T09:52:39;8.20;99.90
59208;DHT22;44977;53.132;6.408;2024-02-04T09:57:39;8.20;99.90
59208;DHT22;44977;53.132;6.408;2024-02-04T10:02:41;8.30;99.90
59208;DHT22;44977;53.132;6.408;2024-02-04T10:07:43;8.40;99.90
59208;DHT22;44977;53.132;6.408;2024-02-04T10:12:43;8.50;99.90
59208;DHT22;44977;53.132;6.408;2024-02-04T10:17:47;8.60;99.90
59208;DHT22;44977;53.132;6.408;2024-02-04T10:22:48;8.60;99.90
59208;DHT22;44977;53.132;6.408;2024-02-04T10:27:50;8.60;99.90
59208;DHT22;44977;53.132;6.408;2024-02-04T10:32:51;8.70;99.90
59208;DHT22;44977;53.132;6.408;2024-02-04T10:37:53;8.70;99.90
59208;DHT22;44977;53.132;6.408;2024-02-04T10:43:03;8.80;99.90
59208;DHT22;44977;53.132;6.408;2024-02-04T10:48:05;8.80;99.90
59208;DHT22;44977;53.132;6.408;2024-02-04T10:53:07;8.90;99.90
59208;DHT22;44977;53.132;6.408;2024-02-04T10:58:13;9.00;99.90
59208;DHT22;44977;53.132;6.408;2024-02-04T11:03:17;9.00;99.90
59208;DHT22;44977;53.132;6.408;2024-02-04T11:08:19;9.00;99.90
59208;DHT22;44977;53.132;6.408;2024-02-04T11:13:22;9.00;99.90
59208;DHT22;44977;53.132;6.408;2024-02-04T11:19:05;9.00;99.90
59208;DHT22;44977;53.132;6.408;2024-02-04T11:29:33;9.00;99.90
59208;DHT22;44977;53.132;6.408;2024-02-04T11:34:36;9.00;99.90
59208;DHT22;44977;53.132;6.408;2024-02-04T11:39:37;9.10;99.90
59208;DHT22;44977;53.132;6.408;2024-02-04T11:44:47;9.10;99.90
59208;DHT22;44977;53.132;6.408;2024-02-04T11:49:58;9.10;99.90
59208;DHT22;44977;53.132;6.408;2024-02-04T11:54:59;9.10;99.90
59208;DHT22;44977;53.132;6.408;2024-02-04T12:00:00;9.20;99.90
59208;DHT22;44977;53.132;6.408;2024-02-04T12:05:02;9.20;99.90
59208;DHT22;44977;53.132;6.408;2024-02-04T12:10:04;9.30;99.90
59208;DHT22;44977;53.132;6.408;2024-02-04T12:15:06;9.30;99.90
59208;DHT22;44977;53.132;6.408;2024-02-04T12:20:07;9.30;99.90
59208;DHT22;44977;53.132;6.408;2024-02-04T12:25:08;9.30;99.90
59208;DHT22;44977;53.132;6.408;2024-02-04T12:30:09;9.30;99.90
59208;DHT22;44977;53.132;6.408;2024-02-04T12:35:15;9.40;99.90
59208;DHT22;44977;53.132;6.408;2024-02-04T12:40:21;9.40;99.90
59208;DHT22;44977;53.132;6.408;2024-02-04T12:45:23;9.40;99.90
59208;DHT22;44977;53.132;6.408;2024-02-04T12:50:25;9.40;99.90
59208;DHT22;44977;53.132;6.408;2024-02-04T12:55:27;9.30;99.90
59208;DHT22;44977;53.132;6.408;2024-02-04T13:00:35;9.40;99.90
59208;DHT22;44977;53.132;6.408;2024-02-04T13:05:39;9.30;99.90
59208;DHT22;44977;53.132;6.408;2024-02-04T13:10:39;9.30;99.90
59208;DHT22;44977;53.132;6.408;2024-02-04T13:15:44;9.30;99.90
59208;DHT22;44977;53.132;6.408;2024-02-04T13:20:44;9.30;99.90
59208;DHT22;44977;53.132;6.408;2024-02-04T13:25:46;9.30;99.90
59208;DHT22;44977;53.132;6.408;2024-02-04T13:30:47;9.30;99.90
59208;DHT22;44977;53.132;6.408;2024-02-04T13:35:48;9.30;99.90
59208;DHT22;44977;53.132;6.408;2024-02-04T13:40:49;9.20;99.90
59208;DHT22;44977;53.132;6.408;2024-02-04T13:45:50;9.20;99.90
59208;DHT22;44977;53.132;6.408;2024-02-04T13:50:51;9.20;99.90
59208;DHT22;44977;53.132;6.408;2024-02-04T13:55:54;9.10;99.90
59208;DHT22;44977;53.132;6.408;2024-02-04T14:00:55;9.10;99.90
59208;DHT22;44977;53.132;6.408;2024-02-04T14:05:56;9.00;99.90
59208;DHT22;44977;53.132;6.408;2024-02-04T14:10:57;9.00;99.90
59208;DHT22;44977;53.132;6.408;2024-02-04T14:15:58;9.10;99.90
59208;DHT22;44977;53.132;6.408;2024-02-04T14:20:58;9.00;99.90
59208;DHT22;44977;53.132;6.408;2024-02-04T14:25:59;9.00;99.90
59208;DHT22;44977;53.132;6.408;2024-02-04T14:30:59;9.00;99.90
59208;DHT22;44977;53.132;6.408;2024-02-04T14:36:00;9.00;99.90
59208;DHT22;44977;53.132;6.408;2024-02-04T14:41:01;9.10;99.90
59208;DHT22;44977;53.132;6.408;2024-02-04T14:46:02;9.10;99.90
59208;DHT22;44977;53.132;6.408;2024-02-04T14:51:02;9.10;99.90
59208;DHT22;44977;53.132;6.408;2024-02-04T14:56:03;9.10;99.90
59208;DHT22;44977;53.132;6.408;2024-02-04T15:01:04;9.10;99.90
59208;DHT22;44977;53.132;6.408;2024-02-04T15:06:05;9.10;99.90
59208;DHT22;44977;53.132;6.408;2024-02-04T15:11:06;9.10;99.90
59208;DHT22;44977;53.132;6.408;2024-02-04T15:16:08;9.10;99.90
59208;DHT22;44977;53.132;6.408;2024-02-04T15:21:10;9.10;99.90
59208;DHT22;44977;53.132;6.408;2024-02-04T15:26:11;9.20;99.90
59208;DHT22;44977;53.132;6.408;2024-02-04T15:31:13;9.20;99.90
59208;DHT22;44977;53.132;6.408;2024-02-04T15:36:14;9.10;99.90
59208;DHT22;44977;53.132;6.408;2024-02-04T15:41:14;9.30;99.90
59208;DHT22;44977;53.132;6.408;2024-02-04T15:46:17;9.30;99.90
59208;DHT22;44977;53.132;6.408;2024-02-04T15:51:18;9.30;99.90
59208;DHT22;44977;53.132;6.408;2024-02-04T15:56:19;9.30;99.90
59208;DHT22;44977;53.132;6.408;2024-02-04T16:01:26;9.30;99.90
59208;DHT22;44977;53.132;6.408;2024-02-04T16:06:28;9.30;99.90
59208;DHT22;44977;53.132;6.408;2024-02-04T16:11:34;9.30;99.90
59208;DHT22;44977;53.132;6.408;2024-02-04T16:16:41;9.40;99.90
59208;DHT22;44977;53.132;6.408;2024-02-04T16:21:42;9.40;99.90
59208;DHT22;44977;53.132;6.408;2024-02-04T16:26:44;9.40;99.90
59208;DHT22;44977;53.132;6.408;2024-02-04T16:31:45;9.50;99.90
59208;DHT22;44977;53.132;6.408;2024-02-04T16:36:49;9.50;99.90
59208;DHT22;44977;53.132;6.408;2024-02-04T16:41:49;9.50;99.90
59208;DHT22;44977;53.132;6.408;2024-02-04T16:46:50;9.40;99.90
59208;DHT22;44977;53.132;6.408;2024-02-04T16:51:51;9.40;99.90
59208;DHT22;44977;53.132;6.408;2024-02-04T16:56:52;9.40;99.90
59208;DHT22;44977;53.132;6.408;2024-02-04T17:01:52;9.50;99.90
59208;DHT22;44977;53.132;6.408;2024-02-04T17:06:53;9.40;99.90
59208;DHT22;44977;53.132;6.408;2024-02-04T17:11:54;9.50;99.90
59208;DHT22;44977;53.132;6.408;2024-02-04T17:17:12;9.40;99.90
59208;DHT22;44977;53.132;6.408;2024-02-04T17:22:16;9.40;99.90
59208;DHT22;44977;53.132;6.408;2024-02-04T17:27:21;9.50;99.90
59208;DHT22;44977;53.132;6.408;2024-02-04T17:32:22;9.40;99.90
59208;DHT22;44977;53.132;6.408;2024-02-04T17:37:25;9.50;99.90
59208;DHT22;44977;53.132;6.408;2024-02-04T17:42:26;9.60;99.90
59208;DHT22;44977;53.132;6.408;2024-02-04T17:47:28;9.70;99.90
59208;DHT22;44977;53.132;6.408;2024-02-04T17:52:29;9.60;99.90
59208;DHT22;44977;53.132;6.408;2024-02-04T17:57:30;9.70;99.90
59208;DHT22;44977;53.132;6.408;2024-02-04T18:02:32;9.70;99.90
59208;DHT22;44977;53.132;6.408;2024-02-04T18:07:35;9.70;99.90
59208;DHT22;44977;53.132;6.408;2024-02-04T18:12:36;9.70;99.90
59208;DHT22;44977;53.132;6.408;2024-02-04T18:17:37;9.70;99.90
59208;DHT22;44977;53.132;6.408;2024-02-04T18:22:42;9.70;99.90
59208;DHT22;44977;53.132;6.408;2024-02-04T18:27:43;9.70;99.90
59208;DHT22;44977;53.132;6.408;2024-02-04T18:32:44;9.80;99.90
59208;DHT22;44977;53.132;6.408;2024-02-04T18:37:44;9.80;99.90
59208;DHT22;44977;53.132;6.408;2024-02-04T18:42:45;9.80;99.90
59208;DHT22;44977;53.132;6.408;2024-02-04T18:47:45;9.90;99.90
59208;DHT22;44977;53.132;6.408;2024-02-04T18:52:46;10.10;99.90
59208;DHT22;44977;53.132;6.408;2024-02-04T18:57:47;10.10;99.90
59208;DHT22;44977;53.132;6.408;2024-02-04T19:02:48;10.10;99.90
59208;DHT22;44977;53.132;6.408;2024-02-04T19:07:49;10.10;99.90
59208;DHT22;44977;53.132;6.408;2024-02-04T19:12:51;10.20;99.90
59208;DHT22;44977;53.132;6.408;2024-02-04T19:17:52;10.20;99.90
59208;DHT22;44977;53.132;6.408;2024-02-04T19:22:54;10.30;99.90
59208;DHT22;44977;53.132;6.408;2024-02-04T19:27:56;10.40;99.90
59208;DHT22;44977;53.132;6.408;2024-02-04T19:32:57;10.40;99.90
59208;DHT22;44977;53.132;6.408;2024-02-04T19:37:57;10.40;99.90
59208;DHT22;44977;53.132;6.408;2024-02-04T19:42:59;10.50;99.90
59208;DHT22;44977;53.132;6.408;2024-02-04T19:47:59;10.60;99.90
59208;DHT22;44977;53.132;6.408;2024-02-04T19:53:00;10.60;99.90
59208;DHT22;44977;53.132;6.408;2024-02-04T19:58:01;10.60;99.90
59208;DHT22;44977;53.132;6.408;2024-02-04T20:03:02;10.60;99.90
59208;DHT22;44977;53.132;6.408;2024-02-04T20:08:03;10.60;99.90
59208;DHT22;44977;53.132;6.408;2024-02-04T20:13:04;10.60;99.90
59208;DHT22;44977;53.132;6.408;2024-02-04T20:18:05;10.70;99.90
59208;DHT22;44977;53.132;6.408;2024-02-04T20:23:05;10.70;99.90
59208;DHT22;44977;53.132;6.408;2024-02-04T20:28:06;10.70;99.90
59208;DHT22;44977;53.132;6.408;2024-02-04T20:33:07;10.70;99.90
59208;DHT22;44977;53.132;6.408;2024-02-04T20:38:08;10.70;99.90
59208;DHT22;44977;53.132;6.408;2024-02-04T20:43:09;10.70;99.90
59208;DHT22;44977;53.132;6.408;2024-02-04T20:48:09;10.80;99.90
59208;DHT22;44977;53.132;6.408;2024-02-04T20:53:10;10.80;99.90
59208;DHT22;44977;53.132;6.408;2024-02-04T20:58:11;10.80;99.90
59208;DHT22;44977;53.132;6.408;2024-02-04T21:03:13;10.70;99.90
59208;DHT22;44977;53.132;6.408;2024-02-04T21:08:13;10.80;99.90
59208;DHT22;44977;53.132;6.408;2024-02-04T21:13:14;10.80;99.90
59208;DHT22;44977;53.132;6.408;2024-02-04T21:18:15;10.80;99.90
59208;DHT22;44977;53.132;6.408;2024-02-04T21:23:15;10.80;99.90
59208;DHT22;44977;53.132;6.408;2024-02-04T21:28:16;10.80;99.90
59208;DHT22;44977;53.132;6.408;2024-02-04T21:33:17;10.80;99.90
59208;DHT22;44977;53.132;6.408;2024-02-04T21:38:19;10.80;99.90
59208;DHT22;44977;53.132;6.408;2024-02-04T21:43:21;10.80;99.90
59208;DHT22;44977;53.132;6.408;2024-02-04T21:48:21;10.80;99.90
59208;DHT22;44977;53.132;6.408;2024-02-04T21:53:22;10.80;99.90
59208;DHT22;44977;53.132;6.408;2024-02-04T21:58:23;10.80;99.90
59208;DHT22;44977;53.132;6.408;2024-02-04T22:03:24;10.80;99.90
59208;DHT22;44977;53.132;6.408;2024-02-04T22:08:24;10.80;99.90
59208;DHT22;44977;53.132;6.408;2024-02-04T22:13:25;10.70;99.90
59208;DHT22;44977;53.132;6.408;2024-02-04T22:18:27;10.70;99.90
59208;DHT22;44977;53.132;6.408;2024-02-04T22:23:27;10.70;99.90
59208;DHT22;44977;53.132;6.408;2024-02-04T22:28:28;10.70;99.90
59208;DHT22;44977;53.132;6.408;2024-02-04T22:33:29;10.70;99.90
59208;DHT22;44977;53.132;6.408;2024-02-04T22:38:31;10.70;99.90
59208;DHT22;44977;53.132;6.408;2024-02-04T22:43:32;10.60;99.90
59208;DHT22;44977;53.132;6.408;2024-02-04T22:48:33;10.60;99.90
59208;DHT22;44977;53.132;6.408;2024-02-04T22:53:33;10.60;99.90
59208;DHT22;44977;53.132;6.408;2024-02-04T22:58:34;10.60;99.90
59208;DHT22;44977;53.132;6.408;2024-02-04T23:03:35;10.60;99.90
59208;DHT22;44977;53.132;6.408;2024-02-04T23:08:36;10.60;99.90
59208;DHT22;44977;53.132;6.408;2024-02-04T23:13:36;10.60;99.90
59208;DHT22;44977;53.132;6.408;2024-02-04T23:18:37;10.60;99.90
59208;DHT22;44977;53.132;6.408;2024-02-04T23:23:37;10.60;99.90
59208;DHT22;44977;53.132;6.408;2024-02-04T23:28:40;10.60;99.90
59208;DHT22;44977;53.132;6.408;2024-02-04T23:33:40;10.60;99.90
59208;DHT22;44977;53.132;6.408;2024-02-04T23:38:41;10.60;99.90
59208;DHT22;44977;53.132;6.408;2024-02-04T23:43:42;10.60;99.90
59208;DHT22;44977;53.132;6.408;2024-02-04T23:48:42;10.50;99.90
59208;DHT22;44977;53.132;6.408;2024-02-04T23:53:44;10.60;99.90
59208;DHT22;44977;53.132;6.408;2024-02-04T23:58:44;10.60;99.90
